createdAt,value
2022-08-07T00:00:12.582Z,738.23
2022-08-07T00:02:44.255Z,728.93
2022-08-07T00:05:11.190Z,731.10
2022-08-07T00:07:40.905Z,735.20
2022-08-07T00:10:26.661Z,726.23
2022-08-07T00:13:00.346Z,733.20
2022-08-07T00:15:38.028Z,727.77
2022-08-07T00:18:19.539Z,735.63
2022-08-07T00:20:46.866Z,735.90
2022-08-07T00:23:14.234Z,736.80
2022-08-07T00:25:41.455Z,734.13
2022-08-07T00:28:08.175Z,734.60
2022-08-07T00:30:37.150Z,727.23
2022-08-07T00:33:03.610Z,726.07
2022-08-07T00:35:30.499Z,735.23
2022-08-07T00:37:57.145Z,732.00
2022-08-07T00:40:36.337Z,737.73
2022-08-07T00:43:09.720Z,729.63
2022-08-07T00:45:40.501Z,737.53
2022-08-07T00:48:08.829Z,729.47
2022-08-07T00:50:50.210Z,733.30
2022-08-07T00:53:17.947Z,735.23
2022-08-07T00:56:03.258Z,726.23
2022-08-07T00:58:30.420Z,725.77
2022-08-07T01:00:56.845Z,735.80
2022-08-07T01:03:54.903Z,729.87
2022-08-07T01:06:09.791Z,740.57
2022-08-07T01:08:38.786Z,729.33
2022-08-07T01:12:04.939Z,728.27
2022-08-07T01:13:56.287Z,728.27
2022-08-07T01:16:30.297Z,735.93
2022-08-07T01:18:57.210Z,727.90
2022-08-07T01:21:26.116Z,732.93
2022-08-07T01:23:53.445Z,738.67
2022-08-07T01:26:20.232Z,730.87
2022-08-07T01:28:48.248Z,735.83
2022-08-07T01:31:15.485Z,729.90
2022-08-07T01:33:55.369Z,728.37
2022-08-07T01:36:22.854Z,731.10
2022-08-07T01:39:00.604Z,738.83
2022-08-07T01:41:27.098Z,728.27
2022-08-07T01:43:53.525Z,737.93
2022-08-07T01:46:21.464Z,736.90
2022-08-07T01:48:47.993Z,726.10
2022-08-07T01:52:01.009Z,730.70
2022-08-07T01:54:12.729Z,725.87
2022-08-07T01:56:49.333Z,727.83
2022-08-07T01:59:16.144Z,728.53
2022-08-07T02:02:01.671Z,734.40
2022-08-07T02:04:30.341Z,728.93
2022-08-07T02:06:56.949Z,728.43
2022-08-07T02:09:33.887Z,727.93
2022-08-07T02:12:09.842Z,721.60
2022-08-07T02:14:40.796Z,729.17
2022-08-07T02:17:07.684Z,736.13
2022-08-07T02:20:05.246Z,732.80
2022-08-07T02:22:21.649Z,730.83
2022-08-07T02:24:52.450Z,737.70
2022-08-07T02:27:18.953Z,739.23
2022-08-07T02:29:53.989Z,740.90
2022-08-07T02:32:23.268Z,733.13
2022-08-07T02:34:51.186Z,745.60
2022-08-07T02:37:17.886Z,738.17
2022-08-07T02:40:01.644Z,740.73
2022-08-07T02:42:30.778Z,742.97
2022-08-07T02:44:58.318Z,738.57
2022-08-07T02:47:24.966Z,736.40
2022-08-07T02:49:56.278Z,742.53
2022-08-07T02:52:32.035Z,744.80
2022-08-07T02:54:59.887Z,737.70
2022-08-07T02:57:30.884Z,744.23
2022-08-07T03:00:04.786Z,741.53
2022-08-07T03:02:31.717Z,746.60
2022-08-07T03:04:58.886Z,746.03
2022-08-07T03:08:04.965Z,737.30
2022-08-07T03:10:14.419Z,737.73
2022-08-07T03:12:40.984Z,746.33
2022-08-07T03:15:08.063Z,741.83
2022-08-07T03:17:36.381Z,750.33
2022-08-07T03:20:20.545Z,739.97
2022-08-07T03:22:50.211Z,751.50
2022-08-07T03:25:16.926Z,746.60
2022-08-07T03:28:08.863Z,748.23
2022-08-07T03:30:34.091Z,745.77
2022-08-07T03:33:00.970Z,745.93
2022-08-07T03:35:27.511Z,737.07
2022-08-07T03:38:10.628Z,742.93
2022-08-07T03:40:39.855Z,739.40
2022-08-07T03:43:14.579Z,736.73
2022-08-07T03:45:43.715Z,737.07
2022-08-07T03:48:14.486Z,736.43
2022-08-07T03:50:43.192Z,742.93
2022-08-07T03:53:30.239Z,740.03
2022-08-07T03:56:09.211Z,741.93
2022-08-07T03:59:08.019Z,744.73
2022-08-07T04:01:26.593Z,740.50
2022-08-07T04:03:55.252Z,746.10
2022-08-07T04:06:37.281Z,742.33
2022-08-07T04:09:04.564Z,742.13
2022-08-07T04:12:26.999Z,747.20
2022-08-07T04:14:38.875Z,747.23
2022-08-07T04:17:04.707Z,746.03
2022-08-07T04:19:51.536Z,738.87
2022-08-07T04:22:20.503Z,746.70
2022-08-07T04:24:49.444Z,742.73
2022-08-07T04:27:25.294Z,743.97
2022-08-07T04:30:01.650Z,751.10
2022-08-07T04:32:34.308Z,750.10
2022-08-07T04:35:01.506Z,742.13
2022-08-07T04:37:30.524Z,747.93
2022-08-07T04:40:16.926Z,743.10
2022-08-07T04:42:46.125Z,747.03
2022-08-07T04:45:44.429Z,747.00
2022-08-07T04:48:10.660Z,747.13
2022-08-07T04:50:37.439Z,744.83
2022-08-07T04:53:06.039Z,751.13
2022-08-07T04:58:10.639Z,749.10
2022-08-07T04:58:33.713Z,745.93
2022-08-07T05:01:13.549Z,743.57
2022-08-07T05:04:06.503Z,739.50
2022-08-07T05:06:28.605Z,748.83
2022-08-07T05:09:10.233Z,746.90
2022-08-07T05:11:57.577Z,743.67
2022-08-07T05:14:52.167Z,742.70
2022-08-07T05:17:11.890Z,741.43
2022-08-07T05:19:44.917Z,747.70
2022-08-07T05:22:11.855Z,739.20
2022-08-07T05:24:40.492Z,747.53
2022-08-07T05:27:07.234Z,747.00
2022-08-07T05:29:51.163Z,745.63
2022-08-07T05:32:20.158Z,750.87
2022-08-07T05:34:48.248Z,749.10
2022-08-07T05:37:16.241Z,750.73
2022-08-07T05:40:16.622Z,748.83
2022-08-07T05:42:39.137Z,745.10
2022-08-07T05:45:26.231Z,752.40
2022-08-07T05:48:01.843Z,741.83
2022-08-07T05:50:29.249Z,746.57
2022-08-07T05:52:55.862Z,745.13
2022-08-07T05:55:22.294Z,744.80
2022-08-07T05:57:49.358Z,748.30
2022-08-07T06:00:17.876Z,739.07
2022-08-07T06:02:44.414Z,748.77
2022-08-07T06:05:15.711Z,748.00
2022-08-07T06:08:29.376Z,750.10
2022-08-07T06:10:28.933Z,747.93
2022-08-07T06:12:55.737Z,742.00
2022-08-07T06:15:22.233Z,741.73
2022-08-07T06:18:06.016Z,745.77
2022-08-07T06:20:50.880Z,747.73
2022-08-07T06:23:46.188Z,746.43
2022-08-07T06:26:05.295Z,745.43
2022-08-07T06:28:33.575Z,750.30
2022-08-07T06:31:00.040Z,738.67
2022-08-07T06:33:26.531Z,742.20
2022-08-07T06:36:06.673Z,747.87
2022-08-07T06:38:39.627Z,748.27
2022-08-07T06:42:00.907Z,747.83
2022-08-07T06:44:11.803Z,739.53
2022-08-07T06:46:39.881Z,742.80
2022-08-07T06:49:06.490Z,747.53
2022-08-07T06:51:33.880Z,743.37
2022-08-07T06:55:34.547Z,746.07
2022-08-07T06:56:49.731Z,747.13
2022-08-07T07:00:16.953Z,743.73
2022-08-07T07:02:03.517Z,738.47
2022-08-07T07:04:32.923Z,739.23
2022-08-07T07:07:01.837Z,749.43
2022-08-07T07:09:31.414Z,745.23
2022-08-07T07:12:08.217Z,740.53
2022-08-07T07:14:37.423Z,746.60
2022-08-07T07:17:04.386Z,742.80
2022-08-07T07:19:56.157Z,737.47
2022-08-07T07:22:35.837Z,739.87
2022-08-07T07:26:33.236Z,747.63
2022-08-07T07:27:55.606Z,736.47
2022-08-07T07:30:26.565Z,742.20
2022-08-07T07:33:04.212Z,746.23
2022-08-07T07:35:33.490Z,744.27
2022-08-07T07:38:02.893Z,736.50
2022-08-07T07:40:32.065Z,743.97
2022-08-07T07:42:58.495Z,734.83
2022-08-07T07:46:37.730Z,745.83
2022-08-07T07:48:35.906Z,742.90
2022-08-07T07:51:02.871Z,738.83
2022-08-07T07:53:34.814Z,736.33
2022-08-07T07:56:01.542Z,739.93
2022-08-07T07:58:28.022Z,737.60
2022-08-07T08:00:54.490Z,744.03
2022-08-07T08:04:06.025Z,741.67
2022-08-07T08:06:08.157Z,735.33
2022-08-07T08:08:39.532Z,741.60
2022-08-07T08:11:13.653Z,739.93
2022-08-07T08:13:52.872Z,739.93
2022-08-07T08:16:25.203Z,731.03
2022-08-07T08:18:51.870Z,738.33
2022-08-07T08:21:18.328Z,732.13
2022-08-07T08:23:45.675Z,734.00
2022-08-07T08:26:12.655Z,732.83
2022-08-07T08:28:44.958Z,731.63
2022-08-07T08:31:14.792Z,736.20
2022-08-07T08:33:43.853Z,737.60
2022-08-07T08:36:16.164Z,734.67
2022-08-07T08:38:42.647Z,740.83
2022-08-07T08:41:11.985Z,734.07
2022-08-07T08:43:42.739Z,735.83
2022-08-07T08:46:16.906Z,730.70
2022-08-07T08:48:51.034Z,738.80
2022-08-07T08:51:49.726Z,731.40
2022-08-07T08:54:04.102Z,725.87
2022-08-07T08:56:30.559Z,725.47
2022-08-07T08:58:57.025Z,736.53
2022-08-07T09:01:24.492Z,736.93
2022-08-07T09:03:56.703Z,737.87
2022-08-07T09:06:23.332Z,728.57
2022-08-07T09:08:51.187Z,737.87
2022-08-07T09:11:24.413Z,732.50
2022-08-07T09:14:04.305Z,734.80
2022-08-07T09:16:31.079Z,738.33
2022-08-07T09:18:58.404Z,730.67
2022-08-07T09:21:57.786Z,732.60
2022-08-07T09:24:30.451Z,737.23
2022-08-07T09:26:58.275Z,730.47
2022-08-07T09:30:03.833Z,729.13
2022-08-07T09:32:18.775Z,739.33
2022-08-07T09:34:45.372Z,740.70
2022-08-07T09:37:20.772Z,733.07
2022-08-07T09:40:07.156Z,733.37
2022-08-07T09:42:35.299Z,737.93
2022-08-07T09:47:27.513Z,731.97
2022-08-07T09:47:59.012Z,739.30
2022-08-07T09:50:30.384Z,738.87
2022-08-07T09:52:56.842Z,735.33
2022-08-07T09:55:29.310Z,741.20
2022-08-07T09:58:09.715Z,734.17
2022-08-07T10:00:38.094Z,743.87
2022-08-07T10:03:08.477Z,736.30
2022-08-07T10:06:00.274Z,738.77
2022-08-07T10:08:29.047Z,739.00
2022-08-07T10:12:00.001Z,737.67
2022-08-07T10:14:00.200Z,736.23
2022-08-07T10:16:27.973Z,738.20
2022-08-07T10:18:54.417Z,734.83
2022-08-07T10:21:50.472Z,743.73
2022-08-07T10:24:08.611Z,741.80
2022-08-07T10:26:36.457Z,745.10
2022-08-07T10:29:02.951Z,741.00
2022-08-07T10:31:31.432Z,741.30
2022-08-07T10:34:15.244Z,741.17
2022-08-07T10:36:45.564Z,733.00
2022-08-07T10:39:14.082Z,739.87
2022-08-07T10:41:52.413Z,738.53
2022-08-07T10:44:33.733Z,733.83
2022-08-07T10:47:05.765Z,735.10
2022-08-07T10:49:49.269Z,738.37
2022-08-07T10:52:17.623Z,740.20
2022-08-07T10:54:53.529Z,740.60
2022-08-07T10:57:34.588Z,741.17
2022-08-07T11:00:01.571Z,739.83
2022-08-07T11:02:34.295Z,740.57
2022-08-07T11:05:10.146Z,740.77
2022-08-07T11:08:00.543Z,742.97
2022-08-07T11:10:27.329Z,740.23
2022-08-07T11:13:02.127Z,740.03
2022-08-07T11:15:31.759Z,734.57
2022-08-07T11:18:03.574Z,739.60
2022-08-07T11:20:30.987Z,732.10
2022-08-07T11:22:57.452Z,742.20
2022-08-07T11:25:23.918Z,738.40
2022-08-07T11:28:02.513Z,742.90
2022-08-07T11:30:41.509Z,743.23
2022-08-07T11:33:14.298Z,738.03
2022-08-07T11:35:59.686Z,737.93
2022-08-07T11:38:28.310Z,739.40
2022-08-07T11:40:54.947Z,741.83
2022-08-07T11:43:29.816Z,745.63
2022-08-07T11:46:09.265Z,735.70
2022-08-07T11:48:35.895Z,746.43
2022-08-07T11:51:04.055Z,741.23
2022-08-07T11:53:35.657Z,738.27
2022-08-07T11:56:25.546Z,745.87
2022-08-07T11:58:49.770Z,742.73
2022-08-07T12:01:20.436Z,737.67
2022-08-07T12:03:48.680Z,742.30
2022-08-07T12:06:39.049Z,748.00
2022-08-07T12:09:01.639Z,742.70
2022-08-07T12:11:32.576Z,743.23
2022-08-07T12:13:59.121Z,747.23
2022-08-07T12:16:30.183Z,741.87
2022-08-07T12:18:57.371Z,747.13
2022-08-07T12:21:56.019Z,737.90
2022-08-07T12:24:36.742Z,745.30
2022-08-07T12:26:56.759Z,739.37
2022-08-07T12:29:38.814Z,743.27
2022-08-07T12:32:12.063Z,740.50
2022-08-07T12:34:39.200Z,745.80
2022-08-07T12:37:08.430Z,741.27
2022-08-07T12:39:50.811Z,743.13
2022-08-07T12:42:17.888Z,746.30
2022-08-07T12:44:53.933Z,744.03
2022-08-07T12:47:27.052Z,743.93
2022-08-07T12:50:04.350Z,740.50
2022-08-07T12:52:34.213Z,745.20
2022-08-07T12:55:05.246Z,746.47
2022-08-07T12:57:38.760Z,738.17
2022-08-07T13:00:32.507Z,738.43
2022-08-07T13:03:06.827Z,746.43
2022-08-07T13:06:03.596Z,740.80
2022-08-07T13:08:20.354Z,745.80
2022-08-07T13:10:51.411Z,739.47
2022-08-07T13:13:48.031Z,741.30
2022-08-07T13:16:05.272Z,742.80
2022-08-07T13:18:34.213Z,747.83
2022-08-07T13:21:00.785Z,742.53
2022-08-07T13:24:01.138Z,740.03
2022-08-07T13:26:15.905Z,740.77
2022-08-07T13:28:44.827Z,749.33
2022-08-07T13:31:13.551Z,744.83
2022-08-07T13:34:33.578Z,749.23
2022-08-07T13:36:26.675Z,748.97
2022-08-07T13:38:54.387Z,750.00
2022-08-07T13:41:21.358Z,749.33
2022-08-07T13:43:52.528Z,743.90
2022-08-07T13:46:29.914Z,748.00
2022-08-07T13:48:59.540Z,749.73
2022-08-07T13:51:27.967Z,745.13
2022-08-07T13:54:16.371Z,744.10
2022-08-07T13:56:51.652Z,747.60
2022-08-07T13:59:25.206Z,745.63
2022-08-07T14:02:03.804Z,741.17
2022-08-07T14:04:36.203Z,741.30
2022-08-07T14:07:03.892Z,744.43
2022-08-07T14:10:15.632Z,747.53
2022-08-07T14:12:16.877Z,742.93
2022-08-07T14:14:54.001Z,744.67
2022-08-07T14:18:12.654Z,740.27
2022-08-07T14:20:40.630Z,737.07
2022-08-07T14:22:53.336Z,743.40
2022-08-07T14:25:22.527Z,748.07
2022-08-07T14:28:10.607Z,748.70
2022-08-07T14:30:35.826Z,739.00
2022-08-07T14:33:07.200Z,746.50
2022-08-07T14:35:44.759Z,742.27
2022-08-07T14:38:26.818Z,744.90
2022-08-07T14:40:57.627Z,742.17
2022-08-07T14:43:57.744Z,737.53
2022-08-07T14:46:10.981Z,745.30
2022-08-07T14:48:43.904Z,744.60
2022-08-07T14:56:47.716Z,737.40
2022-08-07T15:00:03.596Z,742.40
2022-08-07T15:02:00.649Z,742.47
2022-08-07T15:04:29.424Z,740.27
2022-08-07T15:07:00.978Z,740.80
2022-08-07T15:09:57.674Z,741.43
2022-08-07T15:15:00.410Z,747.73
2022-08-07T15:17:55.073Z,746.23
2022-08-07T15:20:31.774Z,738.73
2022-08-07T15:23:00.117Z,738.07
2022-08-07T15:25:43.734Z,737.27
2022-08-07T15:33:43.119Z,744.70
2022-08-07T15:36:09.692Z,742.47
2022-08-07T15:38:59.312Z,740.77
2022-08-07T15:41:23.969Z,739.57
2022-08-07T15:44:09.116Z,739.90
2022-08-07T15:46:38.489Z,747.23
2022-08-07T15:49:25.393Z,747.77
2022-08-07T15:52:10.622Z,745.73
2022-08-07T15:54:40.536Z,746.83
2022-08-07T15:57:10.602Z,750.20
2022-08-07T15:59:53.632Z,744.73
2022-08-07T16:02:27.348Z,745.93
2022-08-07T16:04:54.561Z,742.23
2022-08-07T16:08:33.394Z,746.07
2022-08-07T16:10:14.281Z,738.80
2022-08-07T16:12:41.387Z,748.43
2022-08-07T16:15:54.601Z,741.20
2022-08-07T16:18:14.280Z,740.83
2022-08-07T16:21:56.878Z,740.53
2022-08-07T16:23:53.510Z,741.10
2022-08-07T16:26:30.781Z,739.43
2022-08-07T16:30:06.017Z,737.40
2022-08-07T16:31:50.950Z,743.20
2022-08-07T16:34:24.575Z,744.50
2022-08-07T16:37:03.266Z,737.10
2022-08-07T16:39:48.724Z,741.77
2022-08-07T16:42:16.024Z,736.97
2022-08-07T16:45:14.152Z,744.73
2022-08-07T16:47:51.171Z,741.33
2022-08-07T16:50:35.727Z,741.23
2022-08-07T16:53:14.767Z,734.30
2022-08-07T16:55:48.307Z,739.03
2022-08-07T16:58:15.894Z,742.40
2022-08-07T17:00:42.449Z,736.33
2022-08-07T17:03:09.242Z,738.20
2022-08-07T17:06:01.916Z,742.43
2022-08-07T17:08:26.097Z,738.53
2022-08-07T17:10:54.875Z,734.37
2022-08-07T17:13:41.664Z,745.07
2022-08-07T17:16:17.688Z,738.20
2022-08-07T17:18:45.911Z,743.47
2022-08-07T17:21:19.000Z,743.73
2022-08-07T17:23:49.371Z,746.63
2022-08-07T17:26:23.603Z,746.93
2022-08-07T17:28:56.988Z,744.33
2022-08-07T17:31:23.543Z,746.10
2022-08-07T17:34:32.528Z,746.00
2022-08-07T17:36:57.648Z,742.93
2022-08-07T17:39:22.909Z,742.57
2022-08-07T17:42:09.353Z,748.40
2022-08-07T17:44:41.679Z,742.70
2022-08-07T17:47:16.848Z,745.00
2022-08-07T17:49:58.640Z,740.33
2022-08-07T17:52:30.388Z,740.80
2022-08-07T17:54:57.469Z,734.57
2022-08-07T17:57:56.242Z,743.93
2022-08-07T18:00:12.277Z,745.93
2022-08-07T18:02:58.745Z,744.80
2022-08-07T18:05:25.194Z,738.07
2022-08-07T18:07:51.700Z,737.60
2022-08-07T18:10:31.970Z,744.63
2022-08-07T18:12:59.393Z,737.07
2022-08-07T18:15:32.649Z,737.03
2022-08-07T18:18:45.378Z,733.70
2022-08-07T18:21:09.410Z,734.53
2022-08-07T18:23:43.120Z,739.43
2022-08-07T18:26:14.954Z,746.40
2022-08-07T18:28:58.160Z,728.43
2022-08-07T18:31:25.475Z,708.27
2022-08-07T18:34:00.277Z,707.17
2022-08-07T18:36:33.196Z,713.37
2022-08-07T18:40:06.559Z,634.67
2022-08-07T18:41:46.753Z,690.60
2022-08-07T18:44:13.679Z,704.20
2022-08-07T18:46:43.195Z,716.60
2022-08-07T18:50:33.099Z,713.87
2022-08-07T18:52:33.709Z,724.17
2022-08-07T18:54:49.663Z,729.93
2022-08-07T18:57:29.824Z,730.03
2022-08-07T18:59:59.127Z,747.83
2022-08-07T19:02:34.250Z,743.13
2022-08-07T19:05:15.121Z,745.63
2022-08-07T19:07:51.945Z,738.13
2022-08-07T19:10:24.033Z,744.27
2022-08-07T19:13:09.925Z,741.80
2022-08-07T19:16:05.428Z,737.37
2022-08-07T19:18:34.479Z,733.83
2022-08-07T19:21:09.311Z,742.33
2022-08-07T19:23:59.134Z,737.43
2022-08-07T19:26:28.793Z,745.10
2022-08-07T19:30:54.411Z,742.80
2022-08-07T19:32:10.930Z,737.07
2022-08-07T19:34:34.353Z,740.00
2022-08-07T19:37:10.045Z,738.13
2022-08-07T19:39:57.008Z,728.30
2022-08-07T19:42:25.249Z,725.73
2022-08-07T19:44:51.790Z,721.03
2022-08-07T19:47:18.253Z,724.97
2022-08-07T19:49:56.767Z,720.83
2022-08-07T19:52:25.513Z,725.63
2022-08-07T19:54:56.583Z,726.10
2022-08-07T19:58:01.223Z,727.60
2022-08-07T20:00:10.485Z,731.23
2022-08-07T20:02:39.121Z,731.53
2022-08-07T20:05:07.727Z,735.37
2022-08-07T20:07:47.432Z,737.83
2022-08-07T20:10:36.151Z,732.07
2022-08-07T20:13:06.143Z,732.37
2022-08-07T20:15:37.182Z,734.87
2022-08-07T20:18:04.403Z,742.23
2022-08-07T20:20:30.966Z,741.93
2022-08-07T20:22:57.479Z,743.83
2022-08-07T20:25:23.966Z,737.73
2022-08-07T20:27:54.173Z,743.40
2022-08-07T20:30:25.164Z,732.93
2022-08-07T20:32:51.909Z,738.83
2022-08-07T20:35:21.948Z,745.77
2022-08-07T20:37:58.318Z,737.17
2022-08-07T20:40:32.787Z,752.00
2022-08-07T20:43:00.923Z,742.77
2022-08-07T20:45:32.789Z,746.20
2022-08-07T20:48:28.287Z,741.40
2022-08-07T20:50:55.571Z,751.77
2022-08-07T20:53:25.970Z,746.30
2022-08-07T20:56:08.451Z,748.07
2022-08-07T20:58:35.025Z,744.23
2022-08-07T21:01:01.458Z,751.40
2022-08-07T21:03:27.957Z,748.13
2022-08-07T21:05:56.600Z,745.57
2022-08-07T21:08:35.020Z,746.20
2022-08-07T21:11:04.807Z,738.33
2022-08-07T21:13:57.950Z,744.40
2022-08-07T21:16:20.405Z,748.37
2022-08-07T21:18:53.229Z,738.83
2022-08-07T21:21:19.822Z,748.80
2022-08-07T21:23:53.716Z,738.10
2022-08-07T21:26:20.205Z,743.57
2022-08-07T21:28:50.875Z,741.73
2022-08-07T21:31:17.672Z,736.13
2022-08-07T21:33:58.033Z,744.23
2022-08-07T21:36:30.838Z,743.80
2022-08-07T21:38:59.092Z,737.60
2022-08-07T21:41:26.461Z,746.43
2022-08-07T21:43:56.102Z,736.60
2022-08-07T21:46:24.774Z,736.33
2022-08-07T21:48:58.023Z,744.13
2022-08-07T21:51:25.453Z,745.33
2022-08-07T21:53:53.546Z,742.40
2022-08-07T21:56:36.226Z,740.73
2022-08-07T21:59:06.172Z,737.07
2022-08-07T22:02:07.043Z,734.73
2022-08-07T22:04:20.357Z,736.17
2022-08-07T22:06:49.705Z,747.27
2022-08-07T22:09:16.417Z,744.23
2022-08-07T22:12:04.985Z,741.93
2022-08-07T22:14:34.793Z,737.20
2022-08-07T22:17:02.823Z,740.30
2022-08-07T22:19:30.712Z,742.23
2022-08-07T22:22:04.326Z,736.93
2022-08-07T22:24:35.147Z,744.77
2022-08-07T22:27:01.595Z,734.40
2022-08-07T22:29:33.708Z,737.40
2022-08-07T22:32:05.797Z,741.40
2022-08-07T22:34:35.756Z,741.90
2022-08-07T22:37:02.473Z,747.07
2022-08-07T22:39:29.571Z,732.30
2022-08-07T22:42:03.751Z,738.20
2022-08-07T22:44:58.484Z,732.63
2022-08-07T22:47:25.768Z,739.43
2022-08-07T22:49:55.065Z,738.93
2022-08-07T22:52:39.828Z,741.00
2022-08-07T22:55:14.935Z,746.63
2022-08-07T22:57:49.816Z,742.17
2022-08-07T23:00:16.387Z,734.37
2022-08-07T23:02:43.178Z,740.83
2022-08-07T23:06:10.293Z,737.60
2022-08-07T23:07:57.347Z,741.73
2022-08-07T23:10:37.515Z,741.53
2022-08-07T23:13:07.545Z,735.50
2022-08-07T23:16:06.215Z,741.70
2022-08-07T23:18:20.738Z,732.77
2022-08-07T23:20:53.228Z,732.53
2022-08-07T23:24:05.112Z,742.33
2022-08-07T23:26:06.501Z,741.20
2022-08-07T23:28:32.938Z,739.57
2022-08-07T23:31:07.080Z,744.47
2022-08-07T23:34:36.602Z,733.47
2022-08-07T23:36:28.970Z,732.40
2022-08-07T23:38:56.384Z,734.13
2022-08-07T23:41:24.382Z,740.77
2022-08-07T23:43:59.597Z,738.53
2022-08-07T23:46:27.316Z,742.20
2022-08-07T23:48:53.900Z,736.13
2022-08-07T23:53:01.713Z,727.57
2022-08-07T23:54:11.556Z,734.43
2022-08-07T23:56:53.593Z,728.40
